sensor_id;sensor_type;location;lat;lon;timestamp;P1;durP1;ratioP1;P2;durP2;ratioP2
13291;SDS011;6714;53.056;8.690;2022-09-27T00:01:43;4.53;;;4.23;;
13291;SDS011;6714;53.056;8.690;2022-09-27T00:04:26;6.63;;;6.10;;
13291;SDS011;6714;53.056;8.690;2022-09-27T00:07:10;5.50;;;5.10;;
13291;SDS011;6714;53.056;8.690;2022-09-27T00:09:52;4.60;;;4.30;;
13291;SDS011;6714;53.056;8.690;2022-09-27T00:12:34;5.17;;;4.70;;
13291;SDS011;6714;53.056;8.690;2022-09-27T00:15:17;7.27;;;6.67;;
13291;SDS011;6714;53.056;8.690;2022-09-27T00:17:59;6.30;;;5.90;;
13291;SDS011;6714;53.056;8.690;2022-09-27T00:20:41;5.93;;;5.47;;
13291;SDS011;6714;53.056;8.690;2022-09-27T00:23:25;6.20;;;5.80;;
13291;SDS011;6714;53.056;8.690;2022-09-27T00:26:09;7.60;;;7.00;;
13291;SDS011;6714;53.056;8.690;2022-09-27T00:28:53;7.87;;;7.27;;
13291;SDS011;6714;53.056;8.690;2022-09-27T00:31:35;7.57;;;6.80;;
13291;SDS011;6714;53.056;8.690;2022-09-27T00:34:18;8.33;;;7.63;;
13291;SDS011;6714;53.056;8.690;2022-09-27T00:37:01;7.37;;;6.67;;
13291;SDS011;6714;53.056;8.690;2022-09-27T00:39:45;7.70;;;7.10;;
13291;SDS011;6714;53.056;8.690;2022-09-27T00:42:27;8.50;;;7.80;;
13291;SDS011;6714;53.056;8.690;2022-09-27T00:45:13;8.57;;;7.77;;
13291;SDS011;6714;53.056;8.690;2022-09-27T00:47:57;8.93;;;8.13;;
13291;SDS011;6714;53.056;8.690;2022-09-27T00:50:40;6.27;;;5.73;;
13291;SDS011;6714;53.056;8.690;2022-09-27T00:53:25;7.10;;;6.40;;
13291;SDS011;6714;53.056;8.690;2022-09-27T00:56:11;4.37;;;4.00;;
13291;SDS011;6714;53.056;8.690;2022-09-27T00:58:56;6.00;;;5.50;;
13291;SDS011;6714;53.056;8.690;2022-09-27T01:01:39;9.37;;;7.30;;
13291;SDS011;6714;53.056;8.690;2022-09-27T01:04:23;7.27;;;6.37;;
13291;SDS011;6714;53.056;8.690;2022-09-27T01:07:07;3.33;;;3.00;;
13291;SDS011;6714;53.056;8.690;2022-09-27T01:09:50;2.30;;;2.17;;
13291;SDS011;6714;53.056;8.690;2022-09-27T01:12:35;8.37;;;6.50;;
13291;SDS011;6714;53.056;8.690;2022-09-27T01:15:22;8.63;;;6.67;;
13291;SDS011;6714;53.056;8.690;2022-09-27T01:18:11;4.07;;;3.77;;
13291;SDS011;6714;53.056;8.690;2022-09-27T01:27:03;3.10;;;2.80;;
13291;SDS011;6714;53.056;8.690;2022-09-27T01:29:56;6.43;;;5.43;;
13291;SDS011;6714;53.056;8.690;2022-09-27T01:32:46;4.67;;;3.23;;
13291;SDS011;6714;53.056;8.690;2022-09-27T01:35:33;4.63;;;4.20;;
13291;SDS011;6714;53.056;8.690;2022-09-27T01:38:20;3.77;;;3.47;;
13291;SDS011;6714;53.056;8.690;2022-09-27T01:41:05;4.50;;;3.97;;
13291;SDS011;6714;53.056;8.690;2022-09-27T01:43:52;3.07;;;2.87;;
13291;SDS011;6714;53.056;8.690;2022-09-27T01:46:35;5.63;;;3.37;;
13291;SDS011;6714;53.056;8.690;2022-09-27T01:49:23;5.03;;;4.53;;
13291;SDS011;6714;53.056;8.690;2022-09-27T01:52:08;6.67;;;4.70;;
13291;SDS011;6714;53.056;8.690;2022-09-27T01:54:52;2.40;;;2.20;;
13291;SDS011;6714;53.056;8.690;2022-09-27T01:57:36;6.70;;;5.07;;
13291;SDS011;6714;53.056;8.690;2022-09-27T02:00:20;3.90;;;2.63;;
13291;SDS011;6714;53.056;8.690;2022-09-27T02:03:04;3.00;;;2.40;;
13291;SDS011;6714;53.056;8.690;2022-09-27T02:05:50;2.63;;;2.43;;
13291;SDS011;6714;53.056;8.690;2022-09-27T02:08:34;3.83;;;3.10;;
13291;SDS011;6714;53.056;8.690;2022-09-27T02:11:17;2.23;;;2.00;;
13291;SDS011;6714;53.056;8.690;2022-09-27T02:14:01;3.50;;;3.00;;
13291;SDS011;6714;53.056;8.690;2022-09-27T02:16:47;5.10;;;3.07;;
13291;SDS011;6714;53.056;8.690;2022-09-27T02:19:31;3.67;;;2.43;;
13291;SDS011;6714;53.056;8.690;2022-09-27T02:22:19;3.23;;;2.47;;
13291;SDS011;6714;53.056;8.690;2022-09-27T02:25:06;2.27;;;1.70;;
13291;SDS011;6714;53.056;8.690;2022-09-27T02:27:54;4.07;;;2.90;;
13291;SDS011;6714;53.056;8.690;2022-09-27T02:30:39;1.43;;;1.30;;
13291;SDS011;6714;53.056;8.690;2022-09-27T02:33:23;1.60;;;1.50;;
13291;SDS011;6714;53.056;8.690;2022-09-27T02:36:07;1.93;;;1.70;;
13291;SDS011;6714;53.056;8.690;2022-09-27T02:38:51;2.07;;;1.80;;
13291;SDS011;6714;53.056;8.690;2022-09-27T02:41:34;5.27;;;1.50;;
13291;SDS011;6714;53.056;8.690;2022-09-27T02:44:16;2.73;;;1.67;;
13291;SDS011;6714;53.056;8.690;2022-09-27T02:47:16;1.10;;;1.00;;
13291;SDS011;6714;53.056;8.690;2022-09-27T02:50:05;1.53;;;1.30;;
13291;SDS011;6714;53.056;8.690;2022-09-27T02:52:52;2.13;;;1.40;;
13291;SDS011;6714;53.056;8.690;2022-09-27T02:55:41;1.67;;;1.10;;
13291;SDS011;6714;53.056;8.690;2022-09-27T02:58:26;1.33;;;1.00;;
13291;SDS011;6714;53.056;8.690;2022-09-27T03:01:13;1.27;;;1.10;;
13291;SDS011;6714;53.056;8.690;2022-09-27T03:04:01;2.67;;;1.30;;
13291;SDS011;6714;53.056;8.690;2022-09-27T03:06:45;2.03;;;1.10;;
13291;SDS011;6714;53.056;8.690;2022-09-27T03:09:29;1.20;;;1.10;;
13291;SDS011;6714;53.056;8.690;2022-09-27T03:12:22;1.33;;;1.23;;
13291;SDS011;6714;53.056;8.690;2022-09-27T03:15:06;2.43;;;0.97;;
13291;SDS011;6714;53.056;8.690;2022-09-27T03:17:50;1.63;;;0.90;;
13291;SDS011;6714;53.056;8.690;2022-09-27T03:20:32;0.60;;;0.60;;
13291;SDS011;6714;53.056;8.690;2022-09-27T03:23:14;1.40;;;1.00;;
13291;SDS011;6714;53.056;8.690;2022-09-27T03:25:59;4.47;;;1.10;;
13291;SDS011;6714;53.056;8.690;2022-09-27T03:28:42;0.87;;;0.87;;
13291;SDS011;6714;53.056;8.690;2022-09-27T03:31:25;1.37;;;1.00;;
13291;SDS011;6714;53.056;8.690;2022-09-27T03:34:07;2.27;;;1.00;;
13291;SDS011;6714;53.056;8.690;2022-09-27T03:36:49;1.70;;;1.00;;
13291;SDS011;6714;53.056;8.690;2022-09-27T03:39:31;1.63;;;1.30;;
13291;SDS011;6714;53.056;8.690;2022-09-27T03:42:14;1.03;;;0.90;;
13291;SDS011;6714;53.056;8.690;2022-09-27T03:44:57;1.77;;;1.00;;
13291;SDS011;6714;53.056;8.690;2022-09-27T03:47:40;1.67;;;1.20;;
13291;SDS011;6714;53.056;8.690;2022-09-27T03:50:22;1.23;;;1.07;;
13291;SDS011;6714;53.056;8.690;2022-09-27T03:53:04;2.73;;;1.40;;
13291;SDS011;6714;53.056;8.690;2022-09-27T03:55:47;2.97;;;1.63;;
13291;SDS011;6714;53.056;8.690;2022-09-27T03:58:29;1.60;;;1.50;;
13291;SDS011;6714;53.056;8.690;2022-09-27T04:01:12;3.20;;;1.50;;
13291;SDS011;6714;53.056;8.690;2022-09-27T04:03:55;1.10;;;1.10;;
13291;SDS011;6714;53.056;8.690;2022-09-27T04:06:37;2.10;;;1.90;;
13291;SDS011;6714;53.056;8.690;2022-09-27T04:09:19;3.23;;;2.00;;
13291;SDS011;6714;53.056;8.690;2022-09-27T04:12:01;3.17;;;1.63;;
13291;SDS011;6714;53.056;8.690;2022-09-27T04:14:44;2.37;;;1.80;;
13291;SDS011;6714;53.056;8.690;2022-09-27T04:17:28;1.50;;;1.23;;
13291;SDS011;6714;53.056;8.690;2022-09-27T04:20:10;2.30;;;1.60;;
13291;SDS011;6714;53.056;8.690;2022-09-27T04:22:52;2.37;;;1.63;;
13291;SDS011;6714;53.056;8.690;2022-09-27T04:25:34;1.80;;;1.70;;
13291;SDS011;6714;53.056;8.690;2022-09-27T04:28:18;3.20;;;1.80;;
13291;SDS011;6714;53.056;8.690;2022-09-27T04:31:01;5.50;;;2.00;;
13291;SDS011;6714;53.056;8.690;2022-09-27T04:33:45;2.30;;;1.83;;
13291;SDS011;6714;53.056;8.690;2022-09-27T04:36:27;1.93;;;1.63;;
13291;SDS011;6714;53.056;8.690;2022-09-27T04:39:08;1.70;;;1.13;;
13291;SDS011;6714;53.056;8.690;2022-09-27T04:41:51;2.60;;;1.40;;
13291;SDS011;6714;53.056;8.690;2022-09-27T04:44:34;1.90;;;1.60;;
13291;SDS011;6714;53.056;8.690;2022-09-27T04:47:16;2.13;;;1.30;;
13291;SDS011;6714;53.056;8.690;2022-09-27T04:50:01;2.20;;;1.43;;
13291;SDS011;6714;53.056;8.690;2022-09-27T04:52:43;1.50;;;1.40;;
13291;SDS011;6714;53.056;8.690;2022-09-27T04:55:26;1.63;;;1.30;;
13291;SDS011;6714;53.056;8.690;2022-09-27T04:58:08;2.77;;;1.80;;
13291;SDS011;6714;53.056;8.690;2022-09-27T05:00:50;2.57;;;1.50;;
13291;SDS011;6714;53.056;8.690;2022-09-27T05:03:34;0.73;;;0.73;;
13291;SDS011;6714;53.056;8.690;2022-09-27T05:06:18;1.73;;;1.47;;
13291;SDS011;6714;53.056;8.690;2022-09-27T05:09:00;2.07;;;1.50;;
13291;SDS011;6714;53.056;8.690;2022-09-27T05:11:42;2.87;;;1.97;;
13291;SDS011;6714;53.056;8.690;2022-09-27T05:14:25;1.07;;;1.03;;
13291;SDS011;6714;53.056;8.690;2022-09-27T05:17:07;2.37;;;1.47;;
13291;SDS011;6714;53.056;8.690;2022-09-27T05:19:49;2.33;;;1.60;;
13291;SDS011;6714;53.056;8.690;2022-09-27T05:22:33;1.03;;;1.00;;
13291;SDS011;6714;53.056;8.690;2022-09-27T05:25:17;3.33;;;1.43;;
13291;SDS011;6714;53.056;8.690;2022-09-27T05:27:59;1.97;;;1.87;;
13291;SDS011;6714;53.056;8.690;2022-09-27T05:30:41;1.40;;;1.30;;
13291;SDS011;6714;53.056;8.690;2022-09-27T05:33:24;2.10;;;1.67;;
13291;SDS011;6714;53.056;8.690;2022-09-27T05:36:07;2.70;;;1.77;;
13291;SDS011;6714;53.056;8.690;2022-09-27T05:38:51;1.63;;;1.53;;
13291;SDS011;6714;53.056;8.690;2022-09-27T05:41:33;2.77;;;1.67;;
13291;SDS011;6714;53.056;8.690;2022-09-27T05:44:15;2.50;;;1.93;;
13291;SDS011;6714;53.056;8.690;2022-09-27T05:46:59;1.07;;;0.97;;
13291;SDS011;6714;53.056;8.690;2022-09-27T05:49:42;2.30;;;1.73;;
13291;SDS011;6714;53.056;8.690;2022-09-27T05:52:24;1.80;;;1.40;;
13291;SDS011;6714;53.056;8.690;2022-09-27T05:55:08;2.50;;;2.27;;
13291;SDS011;6714;53.056;8.690;2022-09-27T05:57:56;2.17;;;1.93;;
13291;SDS011;6714;53.056;8.690;2022-09-27T06:00:39;1.47;;;1.10;;
13291;SDS011;6714;53.056;8.690;2022-09-27T06:03:22;1.90;;;1.40;;
13291;SDS011;6714;53.056;8.690;2022-09-27T06:06:04;2.77;;;1.97;;
13291;SDS011;6714;53.056;8.690;2022-09-27T06:08:46;2.60;;;1.77;;
13291;SDS011;6714;53.056;8.690;2022-09-27T06:11:30;2.43;;;1.60;;
13291;SDS011;6714;53.056;8.690;2022-09-27T06:14:12;2.40;;;2.00;;
13291;SDS011;6714;53.056;8.690;2022-09-27T06:16:55;1.87;;;1.77;;
13291;SDS011;6714;53.056;8.690;2022-09-27T06:19:37;1.37;;;1.27;;
13291;SDS011;6714;53.056;8.690;2022-09-27T06:22:19;1.43;;;1.00;;
13291;SDS011;6714;53.056;8.690;2022-09-27T06:25:04;1.43;;;1.30;;
13291;SDS011;6714;53.056;8.690;2022-09-27T06:27:48;3.03;;;1.60;;
13291;SDS011;6714;53.056;8.690;2022-09-27T06:30:30;1.30;;;1.20;;
13291;SDS011;6714;53.056;8.690;2022-09-27T06:33:13;1.40;;;1.30;;
13291;SDS011;6714;53.056;8.690;2022-09-27T06:35:56;1.03;;;0.97;;
13291;SDS011;6714;53.056;8.690;2022-09-27T06:38:41;2.13;;;1.03;;
13291;SDS011;6714;53.056;8.690;2022-09-27T06:41:27;2.17;;;1.30;;
13291;SDS011;6714;53.056;8.690;2022-09-27T06:44:10;1.03;;;1.03;;
13291;SDS011;6714;53.056;8.690;2022-09-27T06:46:53;1.57;;;1.40;;
13291;SDS011;6714;53.056;8.690;2022-09-27T06:49:35;4.07;;;1.33;;
13291;SDS011;6714;53.056;8.690;2022-09-27T06:52:19;1.17;;;0.90;;
13291;SDS011;6714;53.056;8.690;2022-09-27T06:55:01;1.27;;;1.03;;
13291;SDS011;6714;53.056;8.690;2022-09-27T06:57:44;0.80;;;0.80;;
13291;SDS011;6714;53.056;8.690;2022-09-27T07:00:46;1.10;;;1.03;;
13291;SDS011;6714;53.056;8.690;2022-09-27T07:03:29;3.10;;;1.20;;
13291;SDS011;6714;53.056;8.690;2022-09-27T07:06:16;2.50;;;1.17;;
13291;SDS011;6714;53.056;8.690;2022-09-27T07:08:59;1.00;;;1.00;;
13291;SDS011;6714;53.056;8.690;2022-09-27T07:11:41;0.87;;;0.87;;
13291;SDS011;6714;53.056;8.690;2022-09-27T07:14:25;1.43;;;1.13;;
13291;SDS011;6714;53.056;8.690;2022-09-27T07:17:08;1.23;;;1.10;;
13291;SDS011;6714;53.056;8.690;2022-09-27T07:19:52;1.37;;;0.90;;
13291;SDS011;6714;53.056;8.690;2022-09-27T07:22:38;2.57;;;1.10;;
13291;SDS011;6714;53.056;8.690;2022-09-27T07:25:20;1.30;;;0.93;;
13291;SDS011;6714;53.056;8.690;2022-09-27T07:28:03;2.27;;;1.00;;
13291;SDS011;6714;53.056;8.690;2022-09-27T07:30:45;3.40;;;1.30;;
13291;SDS011;6714;53.056;8.690;2022-09-27T07:33:29;0.90;;;0.67;;
13291;SDS011;6714;53.056;8.690;2022-09-27T07:36:12;2.13;;;1.00;;
13291;SDS011;6714;53.056;8.690;2022-09-27T07:38:55;2.20;;;0.90;;
13291;SDS011;6714;53.056;8.690;2022-09-27T07:41:41;1.60;;;0.80;;
13291;SDS011;6714;53.056;8.690;2022-09-27T07:44:23;1.87;;;0.90;;
13291;SDS011;6714;53.056;8.690;2022-09-27T07:47:06;0.90;;;0.77;;
13291;SDS011;6714;53.056;8.690;2022-09-27T07:49:51;0.83;;;0.80;;
13291;SDS011;6714;53.056;8.690;2022-09-27T07:52:37;1.97;;;0.90;;
13291;SDS011;6714;53.056;8.690;2022-09-27T07:55:20;1.27;;;1.00;;
13291;SDS011;6714;53.056;8.690;2022-09-27T07:58:03;3.10;;;1.00;;
13291;SDS011;6714;53.056;8.690;2022-09-27T08:00:46;0.90;;;0.90;;
13291;SDS011;6714;53.056;8.690;2022-09-27T08:03:28;2.87;;;1.20;;
13291;SDS011;6714;53.056;8.690;2022-09-27T08:06:12;1.53;;;0.80;;
13291;SDS011;6714;53.056;8.690;2022-09-27T08:08:54;0.60;;;0.60;;
13291;SDS011;6714;53.056;8.690;2022-09-27T08:11:36;1.07;;;0.77;;
13291;SDS011;6714;53.056;8.690;2022-09-27T08:14:19;1.90;;;0.93;;
13291;SDS011;6714;53.056;8.690;2022-09-27T08:17:02;1.20;;;0.90;;
13291;SDS011;6714;53.056;8.690;2022-09-27T08:19:44;0.70;;;0.70;;
13291;SDS011;6714;53.056;8.690;2022-09-27T08:22:30;1.77;;;0.57;;
13291;SDS011;6714;53.056;8.690;2022-09-27T08:25:12;0.70;;;0.70;;
13291;SDS011;6714;53.056;8.690;2022-09-27T08:27:54;1.27;;;0.70;;
13291;SDS011;6714;53.056;8.690;2022-09-27T08:30:37;0.70;;;0.70;;
13291;SDS011;6714;53.056;8.690;2022-09-27T08:33:19;2.10;;;0.90;;
13291;SDS011;6714;53.056;8.690;2022-09-27T08:36:01;1.10;;;0.80;;
13291;SDS011;6714;53.056;8.690;2022-09-27T08:38:45;2.30;;;0.90;;
13291;SDS011;6714;53.056;8.690;2022-09-27T08:41:31;2.63;;;0.93;;
13291;SDS011;6714;53.056;8.690;2022-09-27T08:44:18;1.10;;;0.73;;
13291;SDS011;6714;53.056;8.690;2022-09-27T08:47:05;1.03;;;0.70;;
13291;SDS011;6714;53.056;8.690;2022-09-27T08:49:53;0.83;;;0.60;;
13291;SDS011;6714;53.056;8.690;2022-09-27T08:52:38;2.57;;;0.90;;
13291;SDS011;6714;53.056;8.690;2022-09-27T08:55:23;2.83;;;0.90;;
13291;SDS011;6714;53.056;8.690;2022-09-27T08:58:10;1.90;;;0.60;;
13291;SDS011;6714;53.056;8.690;2022-09-27T09:00:53;0.63;;;0.60;;
13291;SDS011;6714;53.056;8.690;2022-09-27T09:03:37;0.83;;;0.50;;
13291;SDS011;6714;53.056;8.690;2022-09-27T09:06:21;0.93;;;0.60;;
13291;SDS011;6714;53.056;8.690;2022-09-27T09:09:08;1.40;;;0.60;;
13291;SDS011;6714;53.056;8.690;2022-09-27T09:11:55;0.93;;;0.67;;
13291;SDS011;6714;53.056;8.690;2022-09-27T09:15:00;2.27;;;0.70;;
13291;SDS011;6714;53.056;8.690;2022-09-27T09:17:48;2.90;;;0.90;;
13291;SDS011;6714;53.056;8.690;2022-09-27T09:20:39;0.80;;;0.80;;
13291;SDS011;6714;53.056;8.690;2022-09-27T09:26:32;1.13;;;0.60;;
13291;SDS011;6714;53.056;8.690;2022-09-27T09:29:21;3.87;;;0.73;;
13291;SDS011;6714;53.056;8.690;2022-09-27T09:32:08;0.50;;;0.50;;
13291;SDS011;6714;53.056;8.690;2022-09-27T09:34:56;1.00;;;0.67;;
13291;SDS011;6714;53.056;8.690;2022-09-27T09:37:41;0.80;;;0.77;;
13291;SDS011;6714;53.056;8.690;2022-09-27T09:40:26;2.47;;;0.90;;
13291;SDS011;6714;53.056;8.690;2022-09-27T09:43:12;0.60;;;0.50;;
13291;SDS011;6714;53.056;8.690;2022-09-27T09:45:58;1.47;;;0.80;;
13291;SDS011;6714;53.056;8.690;2022-09-27T09:48:42;2.57;;;0.93;;
13291;SDS011;6714;53.056;8.690;2022-09-27T09:51:31;1.93;;;0.90;;
13291;SDS011;6714;53.056;8.690;2022-09-27T09:54:14;0.87;;;0.53;;
13291;SDS011;6714;53.056;8.690;2022-09-27T09:57:01;0.63;;;0.63;;
13291;SDS011;6714;53.056;8.690;2022-09-27T09:59:46;0.83;;;0.60;;
13291;SDS011;6714;53.056;8.690;2022-09-27T10:02:34;1.53;;;0.90;;
13291;SDS011;6714;53.056;8.690;2022-09-27T10:05:18;0.90;;;0.50;;
13291;SDS011;6714;53.056;8.690;2022-09-27T10:08:03;1.20;;;0.70;;
13291;SDS011;6714;53.056;8.690;2022-09-27T10:10:45;0.97;;;0.77;;
13291;SDS011;6714;53.056;8.690;2022-09-27T10:13:29;1.40;;;0.77;;
13291;SDS011;6714;53.056;8.690;2022-09-27T10:16:13;1.07;;;0.83;;
13291;SDS011;6714;53.056;8.690;2022-09-27T10:18:59;0.63;;;0.63;;
13291;SDS011;6714;53.056;8.690;2022-09-27T10:21:42;1.50;;;0.70;;
13291;SDS011;6714;53.056;8.690;2022-09-27T10:24:26;1.07;;;0.87;;
13291;SDS011;6714;53.056;8.690;2022-09-27T10:27:09;1.80;;;0.80;;
13291;SDS011;6714;53.056;8.690;2022-09-27T10:29:55;2.30;;;1.00;;
13291;SDS011;6714;53.056;8.690;2022-09-27T10:32:37;1.37;;;0.67;;
13291;SDS011;6714;53.056;8.690;2022-09-27T10:35:30;0.70;;;0.70;;
13291;SDS011;6714;53.056;8.690;2022-09-27T10:38:21;2.90;;;0.90;;
13291;SDS011;6714;53.056;8.690;2022-09-27T10:41:19;0.90;;;0.80;;
13291;SDS011;6714;53.056;8.690;2022-09-27T10:44:17;0.60;;;0.60;;
13291;SDS011;6714;53.056;8.690;2022-09-27T10:47:04;2.00;;;0.80;;
13291;SDS011;6714;53.056;8.690;2022-09-27T10:49:47;1.80;;;0.77;;
13291;SDS011;6714;53.056;8.690;2022-09-27T10:52:33;1.33;;;0.80;;
13291;SDS011;6714;53.056;8.690;2022-09-27T10:55:18;1.77;;;1.00;;
13291;SDS011;6714;53.056;8.690;2022-09-27T10:58:02;1.50;;;0.93;;
13291;SDS011;6714;53.056;8.690;2022-09-27T11:00:52;1.57;;;0.80;;
13291;SDS011;6714;53.056;8.690;2022-09-27T11:03:36;1.47;;;0.70;;
13291;SDS011;6714;53.056;8.690;2022-09-27T11:06:27;1.93;;;0.80;;
13291;SDS011;6714;53.056;8.690;2022-09-27T11:09:17;1.63;;;0.73;;
13291;SDS011;6714;53.056;8.690;2022-09-27T11:12:06;0.60;;;0.60;;
13291;SDS011;6714;53.056;8.690;2022-09-27T11:14:54;0.80;;;0.77;;
13291;SDS011;6714;53.056;8.690;2022-09-27T11:17:38;1.20;;;0.73;;
13291;SDS011;6714;53.056;8.690;2022-09-27T11:20:24;1.30;;;0.80;;
13291;SDS011;6714;53.056;8.690;2022-09-27T11:23:15;2.20;;;0.90;;
13291;SDS011;6714;53.056;8.690;2022-09-27T11:26:04;0.90;;;0.90;;
13291;SDS011;6714;53.056;8.690;2022-09-27T11:28:57;0.60;;;0.60;;
13291;SDS011;6714;53.056;8.690;2022-09-27T11:31:44;1.70;;;1.03;;
13291;SDS011;6714;53.056;8.690;2022-09-27T11:34:33;1.90;;;0.80;;
13291;SDS011;6714;53.056;8.690;2022-09-27T11:37:21;1.33;;;0.70;;
13291;SDS011;6714;53.056;8.690;2022-09-27T11:40:11;0.60;;;0.60;;
13291;SDS011;6714;53.056;8.690;2022-09-27T11:43:02;2.10;;;1.00;;
13291;SDS011;6714;53.056;8.690;2022-09-27T11:45:52;2.67;;;1.00;;
13291;SDS011;6714;53.056;8.690;2022-09-27T11:48:42;1.20;;;1.00;;
13291;SDS011;6714;53.056;8.690;2022-09-27T11:51:28;1.70;;;0.70;;
13291;SDS011;6714;53.056;8.690;2022-09-27T11:54:15;1.03;;;0.80;;
13291;SDS011;6714;53.056;8.690;2022-09-27T11:57:04;0.80;;;0.80;;
13291;SDS011;6714;53.056;8.690;2022-09-27T11:59:56;0.70;;;0.70;;
13291;SDS011;6714;53.056;8.690;2022-09-27T12:02:55;1.23;;;0.60;;
13291;SDS011;6714;53.056;8.690;2022-09-27T12:05:42;0.70;;;0.70;;
13291;SDS011;6714;53.056;8.690;2022-09-27T12:08:35;0.97;;;0.70;;
13291;SDS011;6714;53.056;8.690;2022-09-27T12:11:20;2.10;;;0.83;;
13291;SDS011;6714;53.056;8.690;2022-09-27T12:14:04;0.73;;;0.70;;
13291;SDS011;6714;53.056;8.690;2022-09-27T12:16:49;1.10;;;0.87;;
13291;SDS011;6714;53.056;8.690;2022-09-27T12:19:33;2.03;;;1.00;;
13291;SDS011;6714;53.056;8.690;2022-09-27T12:22:17;1.13;;;0.70;;
13291;SDS011;6714;53.056;8.690;2022-09-27T12:25:01;2.43;;;1.10;;
13291;SDS011;6714;53.056;8.690;2022-09-27T12:27:45;2.43;;;1.20;;
13291;SDS011;6714;53.056;8.690;2022-09-27T12:30:28;2.20;;;0.90;;
13291;SDS011;6714;53.056;8.690;2022-09-27T12:33:15;1.80;;;1.00;;
13291;SDS011;6714;53.056;8.690;2022-09-27T12:36:00;1.17;;;0.70;;
13291;SDS011;6714;53.056;8.690;2022-09-27T12:38:46;0.83;;;0.83;;
13291;SDS011;6714;53.056;8.690;2022-09-27T12:41:33;2.00;;;1.03;;
13291;SDS011;6714;53.056;8.690;2022-09-27T12:44:17;1.90;;;0.90;;
13291;SDS011;6714;53.056;8.690;2022-09-27T12:47:01;0.90;;;0.70;;
13291;SDS011;6714;53.056;8.690;2022-09-27T12:49:50;1.87;;;0.90;;
13291;SDS011;6714;53.056;8.690;2022-09-27T12:52:36;0.60;;;0.60;;
13291;SDS011;6714;53.056;8.690;2022-09-27T12:55:30;0.93;;;0.83;;
13291;SDS011;6714;53.056;8.690;2022-09-27T12:58:21;1.73;;;0.70;;
13291;SDS011;6714;53.056;8.690;2022-09-27T13:01:11;1.10;;;0.63;;
13291;SDS011;6714;53.056;8.690;2022-09-27T13:04:00;1.43;;;0.67;;
13291;SDS011;6714;53.056;8.690;2022-09-27T13:06:49;0.70;;;0.70;;
13291;SDS011;6714;53.056;8.690;2022-09-27T13:09:47;2.53;;;0.73;;
13291;SDS011;6714;53.056;8.690;2022-09-27T13:12:34;1.50;;;0.73;;
13291;SDS011;6714;53.056;8.690;2022-09-27T13:15:18;1.13;;;0.67;;
13291;SDS011;6714;53.056;8.690;2022-09-27T13:18:02;2.37;;;0.70;;
13291;SDS011;6714;53.056;8.690;2022-09-27T13:20:45;1.17;;;0.63;;
13291;SDS011;6714;53.056;8.690;2022-09-27T13:26:48;1.87;;;0.80;;
13291;SDS011;6714;53.056;8.690;2022-09-27T13:29:31;5.00;;;0.87;;
13291;SDS011;6714;53.056;8.690;2022-09-27T13:32:17;1.47;;;0.70;;
13291;SDS011;6714;53.056;8.690;2022-09-27T13:35:08;0.60;;;0.60;;
13291;SDS011;6714;53.056;8.690;2022-09-27T13:37:52;0.60;;;0.60;;
13291;SDS011;6714;53.056;8.690;2022-09-27T13:40:38;0.67;;;0.63;;
13291;SDS011;6714;53.056;8.690;2022-09-27T13:43:35;1.63;;;0.70;;
13291;SDS011;6714;53.056;8.690;2022-09-27T13:46:21;1.00;;;0.70;;
13291;SDS011;6714;53.056;8.690;2022-09-27T13:49:04;0.47;;;0.47;;
13291;SDS011;6714;53.056;8.690;2022-09-27T13:51:55;0.83;;;0.67;;
13291;SDS011;6714;53.056;8.690;2022-09-27T13:54:39;0.50;;;0.50;;
13291;SDS011;6714;53.056;8.690;2022-09-27T14:00:33;1.07;;;0.50;;
13291;SDS011;6714;53.056;8.690;2022-09-27T14:03:23;0.40;;;0.40;;
13291;SDS011;6714;53.056;8.690;2022-09-27T14:06:13;0.60;;;0.60;;
13291;SDS011;6714;53.056;8.690;2022-09-27T14:08:56;0.40;;;0.40;;
13291;SDS011;6714;53.056;8.690;2022-09-27T14:11:39;0.60;;;0.60;;
13291;SDS011;6714;53.056;8.690;2022-09-27T14:14:23;0.50;;;0.50;;
13291;SDS011;6714;53.056;8.690;2022-09-27T14:17:08;0.53;;;0.53;;
13291;SDS011;6714;53.056;8.690;2022-09-27T14:19:50;0.50;;;0.50;;
13291;SDS011;6714;53.056;8.690;2022-09-27T14:22:33;0.47;;;0.47;;
13291;SDS011;6714;53.056;8.690;2022-09-27T14:25:16;0.40;;;0.40;;
13291;SDS011;6714;53.056;8.690;2022-09-27T14:27:59;0.47;;;0.47;;
13291;SDS011;6714;53.056;8.690;2022-09-27T14:30:41;0.80;;;0.70;;
13291;SDS011;6714;53.056;8.690;2022-09-27T14:33:28;0.50;;;0.50;;
13291;SDS011;6714;53.056;8.690;2022-09-27T14:36:14;1.60;;;0.50;;
13291;SDS011;6714;53.056;8.690;2022-09-27T14:39:19;0.87;;;0.60;;
13291;SDS011;6714;53.056;8.690;2022-09-27T14:42:02;0.63;;;0.53;;
13291;SDS011;6714;53.056;8.690;2022-09-27T14:44:46;1.03;;;0.50;;
13291;SDS011;6714;53.056;8.690;2022-09-27T14:47:28;0.50;;;0.50;;
13291;SDS011;6714;53.056;8.690;2022-09-27T14:50:15;0.63;;;0.60;;
13291;SDS011;6714;53.056;8.690;2022-09-27T14:52:58;0.50;;;0.50;;
13291;SDS011;6714;53.056;8.690;2022-09-27T14:55:44;1.37;;;0.70;;
13291;SDS011;6714;53.056;8.690;2022-09-27T14:58:26;0.50;;;0.50;;
13291;SDS011;6714;53.056;8.690;2022-09-27T15:01:11;0.70;;;0.70;;
13291;SDS011;6714;53.056;8.690;2022-09-27T15:03:56;0.93;;;0.50;;
13291;SDS011;6714;53.056;8.690;2022-09-27T15:06:39;0.73;;;0.67;;
13291;SDS011;6714;53.056;8.690;2022-09-27T15:09:22;0.40;;;0.40;;
13291;SDS011;6714;53.056;8.690;2022-09-27T15:12:06;0.60;;;0.60;;
13291;SDS011;6714;53.056;8.690;2022-09-27T15:14:48;0.60;;;0.60;;
13291;SDS011;6714;53.056;8.690;2022-09-27T15:17:39;1.13;;;0.80;;
13291;SDS011;6714;53.056;8.690;2022-09-27T15:20:23;0.70;;;0.70;;
13291;SDS011;6714;53.056;8.690;2022-09-27T15:26:07;0.33;;;0.33;;
13291;SDS011;6714;53.056;8.690;2022-09-27T15:28:50;1.10;;;0.67;;
13291;SDS011;6714;53.056;8.690;2022-09-27T15:31:33;0.60;;;0.60;;
13291;SDS011;6714;53.056;8.690;2022-09-27T15:34:16;1.23;;;0.60;;
13291;SDS011;6714;53.056;8.690;2022-09-27T15:36:59;0.50;;;0.50;;
13291;SDS011;6714;53.056;8.690;2022-09-27T15:39:42;0.97;;;0.70;;
13291;SDS011;6714;53.056;8.690;2022-09-27T15:42:26;0.47;;;0.47;;
13291;SDS011;6714;53.056;8.690;2022-09-27T15:45:20;0.50;;;0.50;;
13291;SDS011;6714;53.056;8.690;2022-09-27T15:48:10;0.63;;;0.63;;
13291;SDS011;6714;53.056;8.690;2022-09-27T15:50:54;0.80;;;0.80;;
13291;SDS011;6714;53.056;8.690;2022-09-27T15:53:40;0.87;;;0.70;;
13291;SDS011;6714;53.056;8.690;2022-09-27T15:56:22;0.87;;;0.87;;
13291;SDS011;6714;53.056;8.690;2022-09-27T15:59:08;2.00;;;0.70;;
13291;SDS011;6714;53.056;8.690;2022-09-27T16:01:54;0.83;;;0.53;;
13291;SDS011;6714;53.056;8.690;2022-09-27T16:04:36;0.57;;;0.57;;
13291;SDS011;6714;53.056;8.690;2022-09-27T16:07:18;0.73;;;0.70;;
13291;SDS011;6714;53.056;8.690;2022-09-27T16:10:04;1.33;;;0.63;;
13291;SDS011;6714;53.056;8.690;2022-09-27T16:12:50;0.70;;;0.70;;
13291;SDS011;6714;53.056;8.690;2022-09-27T16:15:34;0.77;;;0.77;;
13291;SDS011;6714;53.056;8.690;2022-09-27T16:18:17;0.80;;;0.80;;
13291;SDS011;6714;53.056;8.690;2022-09-27T16:20:59;1.07;;;0.60;;
13291;SDS011;6714;53.056;8.690;2022-09-27T16:23:41;0.60;;;0.60;;
13291;SDS011;6714;53.056;8.690;2022-09-27T16:26:23;0.67;;;0.67;;
13291;SDS011;6714;53.056;8.690;2022-09-27T16:29:08;0.60;;;0.60;;
13291;SDS011;6714;53.056;8.690;2022-09-27T16:31:52;1.57;;;0.90;;
13291;SDS011;6714;53.056;8.690;2022-09-27T16:34:34;0.50;;;0.50;;
13291;SDS011;6714;53.056;8.690;2022-09-27T16:37:16;0.80;;;0.70;;
13291;SDS011;6714;53.056;8.690;2022-09-27T16:39:58;0.80;;;0.70;;
13291;SDS011;6714;53.056;8.690;2022-09-27T16:42:40;0.80;;;0.80;;
13291;SDS011;6714;53.056;8.690;2022-09-27T16:45:24;0.80;;;0.80;;
13291;SDS011;6714;53.056;8.690;2022-09-27T16:48:13;0.70;;;0.70;;
13291;SDS011;6714;53.056;8.690;2022-09-27T16:51:01;0.60;;;0.60;;
13291;SDS011;6714;53.056;8.690;2022-09-27T16:54:01;0.40;;;0.40;;
13291;SDS011;6714;53.056;8.690;2022-09-27T16:56:44;0.70;;;0.70;;
13291;SDS011;6714;53.056;8.690;2022-09-27T16:59:26;0.70;;;0.70;;
13291;SDS011;6714;53.056;8.690;2022-09-27T17:02:08;0.87;;;0.73;;
13291;SDS011;6714;53.056;8.690;2022-09-27T17:04:52;1.40;;;0.70;;
13291;SDS011;6714;53.056;8.690;2022-09-27T17:07:34;0.50;;;0.50;;